Time;durP1;ratioP1;P1;durP2;ratioP2;P2;SDS_P1;SDS_P2;PMS_P1;PMS_P2;Temp;Humidity;BMP_temperature;BMP_pressure;BME280_temperature;BME280_humidity;BME280_pressure;Samples;Min_cycle;Max_cycle;Signal;HPM_P1;HPM_P2
2023/09/27 00:01:43;;;;;;;24.15;18.98;;;;;;;;;;5030151;28;20403;-59
2023/09/27 00:04:10;;;;;;;22.17;19.42;;;;;;;;;;5030083;28;20037;-59
2023/09/27 00:06:36;;;;;;;24.02;19.42;;;;;;;;;;5030434;28;20033;-59
2023/09/27 00:09:02;;;;;;;22.88;20.05;;;;;;;;;;5029581;28;20041;-59
2023/09/27 00:11:28;;;;;;;25.45;20.80;;;;;;;;;;5030007;28;20044;-59
2023/09/27 00:13:54;;;;;;;25.42;19.55;;;;;;;;;;5030228;28;20049;-59
2023/09/27 00:16:20;;;;;;;24.65;21.05;;;;;;;;;;5032505;28;20025;-59
2023/09/27 00:18:46;;;;;;;24.25;21.35;;;;;;;;;;5050014;28;20475;-58
2023/09/27 00:21:12;;;;;;;26.15;21.52;;;;;;;;;;5049980;28;20452;-59
2023/09/27 00:23:38;;;;;;;24.05;21.10;;;;;;;;;;5049541;28;20148;-59
2023/09/27 00:26:04;;;;;;;28.88;22.67;;;;;;;;;;5039116;28;20400;-59
2023/09/27 00:28:30;;;;;;;28.35;23.20;;;;;;;;;;5030038;28;20057;-59
2023/09/27 00:30:56;;;;;;;25.88;22.77;;;;;;;;;;5029615;28;20421;-58
2023/09/27 00:33:23;;;;;;;29.83;24.00;;;;;;;;;;5029743;28;20037;-59
2023/09/27 00:35:49;;;;;;;31.60;23.55;;;;;;;;;;5029664;28;20045;-58
2023/09/27 00:38:15;;;;;;;28.77;24.27;;;;;;;;;;5029879;28;20412;-59
2023/09/27 00:40:48;;;;;;;30.63;24.92;;;;;;;;;;5029427;28;20065;-59
2023/09/27 00:43:26;;;;;;;28.75;24.63;;;;;;;;;;5029278;28;20384;-59
2023/09/27 00:45:53;;;;;;;29.50;25.30;;;;;;;;;;5029459;28;20124;-59
2023/09/27 00:48:19;;;;;;;28.67;24.20;;;;;;;;;;5029695;28;20041;-59
2023/09/27 00:50:45;;;;;;;30.85;24.52;;;;;;;;;;5029437;28;20045;-59
2023/09/27 00:53:11;;;;;;;26.63;23.27;;;;;;;;;;5029316;28;20503;-59
2023/09/27 00:55:37;;;;;;;28.73;23.05;;;;;;;;;;5029420;28;20049;-58
2023/09/27 00:58:03;;;;;;;33.03;26.35;;;;;;;;;;5029571;28;20480;-59
2023/09/27 01:00:30;;;;;;;29.48;22.98;;;;;;;;;;5029321;28;20336;-59
2023/09/27 01:02:57;;;;;;;28.23;23.75;;;;;;;;;;5029353;28;20043;-59
2023/09/27 01:05:23;;;;;;;30.08;23.42;;;;;;;;;;5029491;28;20049;-59
2023/09/27 01:07:49;;;;;;;30.20;24.05;;;;;;;;;;5029513;28;20041;-59
2023/09/27 01:10:15;;;;;;;30.58;23.13;;;;;;;;;;5029343;28;20049;-59
2023/09/27 01:12:42;;;;;;;27.50;23.13;;;;;;;;;;5029242;28;20240;-59
2023/09/27 01:15:08;;;;;;;25.83;21.30;;;;;;;;;;5029328;28;20374;-59
2023/09/27 01:17:34;;;;;;;28.17;23.80;;;;;;;;;;5041703;28;20045;-59
2023/09/27 01:20:00;;;;;;;27.65;22.60;;;;;;;;;;5049421;28;20048;-59
2023/09/27 01:22:26;;;;;;;28.33;22.85;;;;;;;;;;5049402;28;20387;-59
2023/09/27 01:24:53;;;;;;;29.15;23.75;;;;;;;;;;5047954;28;20060;-59
2023/09/27 01:27:20;;;;;;;29.20;24.77;;;;;;;;;;5029557;28;20045;-59
2023/09/27 01:29:46;;;;;;;26.35;23.48;;;;;;;;;;5029521;28;20126;-59
2023/09/27 01:32:12;;;;;;;29.77;24.08;;;;;;;;;;5028595;28;20124;-59
2023/09/27 01:34:38;;;;;;;28.17;23.65;;;;;;;;;;5029058;28;20064;-59
2023/09/27 01:37:07;;;;;;;27.67;23.58;;;;;;;;;;5029342;28;20038;-59
2023/09/27 01:39:33;;;;;;;26.77;22.52;;;;;;;;;;5028994;28;20069;-59
2023/09/27 01:41:59;;;;;;;27.75;23.52;;;;;;;;;;5029350;28;20554;-59
2023/09/27 01:44:25;;;;;;;26.52;23.52;;;;;;;;;;5029542;28;20477;-58
2023/09/27 01:46:51;;;;;;;24.92;22.23;;;;;;;;;;5028681;28;20041;-58
2023/09/27 01:49:17;;;;;;;27.42;22.98;;;;;;;;;;5029249;28;20172;-59
2023/09/27 01:51:43;;;;;;;28.10;23.38;;;;;;;;;;5028804;28;20088;-59
2023/09/27 01:54:09;;;;;;;30.65;23.02;;;;;;;;;;5029303;28;20045;-59
2023/09/27 01:56:35;;;;;;;28.10;24.35;;;;;;;;;;5032763;28;20038;-59
2023/09/27 01:59:01;;;;;;;30.30;25.70;;;;;;;;;;5032849;28;20099;-59
2023/09/27 02:01:27;;;;;;;33.35;24.77;;;;;;;;;;5032867;28;20280;-59
2023/09/27 02:03:53;;;;;;;32.60;24.83;;;;;;;;;;5032363;28;20033;-59
2023/09/27 02:06:19;;;;;;;31.85;24.95;;;;;;;;;;5032570;28;20129;-59
2023/09/27 02:08:45;;;;;;;32.10;26.50;;;;;;;;;;5014237;28;20084;-58
2023/09/27 02:11:13;;;;;;;36.95;27.30;;;;;;;;;;5032591;28;20045;-58
2023/09/27 02:13:39;;;;;;;29.70;23.42;;;;;;;;;;5032533;28;20106;-59
2023/09/27 02:16:05;;;;;;;29.60;25.27;;;;;;;;;;5032878;28;20354;-59
2023/09/27 02:18:31;;;;;;;28.05;24.60;;;;;;;;;;5052353;28;20037;-59
2023/09/27 02:20:57;;;;;;;32.95;24.48;;;;;;;;;;5052616;28;20186;-59
2023/09/27 02:23:23;;;;;;;29.00;24.58;;;;;;;;;;5051835;28;20060;-59
2023/09/27 02:25:58;;;;;;;30.88;24.92;;;;;;;;;;5043518;28;20052;-59
2023/09/27 02:28:24;;;;;;;30.33;24.75;;;;;;;;;;5032328;28;20101;-59
2023/09/27 02:30:50;;;;;;;32.15;24.63;;;;;;;;;;5031877;28;20045;-59
2023/09/27 02:33:16;;;;;;;29.52;23.30;;;;;;;;;;5032098;28;20124;-59
2023/09/27 02:35:42;;;;;;;29.10;24.90;;;;;;;;;;5031972;28;20088;-58
2023/09/27 02:38:09;;;;;;;29.75;25.98;;;;;;;;;;5031606;28;20041;-59
2023/09/27 02:40:35;;;;;;;31.90;24.90;;;;;;;;;;5031932;28;20060;-59
2023/09/27 02:43:00;;;;;;;30.67;25.65;;;;;;;;;;5031756;28;20425;-59
2023/09/27 02:45:27;;;;;;;31.55;25.20;;;;;;;;;;5031566;28;20377;-59
2023/09/27 02:47:53;;;;;;;31.17;24.67;;;;;;;;;;5031992;28;20071;-58
2023/09/27 02:50:19;;;;;;;28.48;24.80;;;;;;;;;;5031859;28;20148;-59
2023/09/27 02:52:45;;;;;;;29.50;24.80;;;;;;;;;;5031423;28;20045;-58
2023/09/27 02:55:11;;;;;;;30.67;25.13;;;;;;;;;;5031594;28;20068;-59
2023/09/27 02:57:37;;;;;;;35.25;26.73;;;;;;;;;;5031348;28;20045;-59
2023/09/27 03:00:06;;;;;;;36.08;26.20;;;;;;;;;;5031164;28;20538;-59
2023/09/27 03:02:33;;;;;;;36.53;27.50;;;;;;;;;;5013948;28;20112;-58
2023/09/27 03:04:59;;;;;;;34.78;25.77;;;;;;;;;;5031091;28;20289;-58
2023/09/27 03:07:25;;;;;;;30.65;25.70;;;;;;;;;;5030869;28;20037;-59
2023/09/27 03:09:51;;;;;;;29.00;25.33;;;;;;;;;;5031432;28;20081;-59
2023/09/27 03:12:17;;;;;;;32.10;25.95;;;;;;;;;;5013638;28;20519;-58
2023/09/27 03:14:43;;;;;;;33.13;26.02;;;;;;;;;;5030817;28;20106;-58
2023/09/27 03:17:09;;;;;;;31.67;26.15;;;;;;;;;;5040866;28;20071;-59
2023/09/27 03:19:35;;;;;;;29.80;25.80;;;;;;;;;;5050945;28;20049;-58
2023/09/27 03:22:01;;;;;;;27.50;24.40;;;;;;;;;;5051041;28;20041;-59
2023/09/27 03:24:27;;;;;;;32.45;23.55;;;;;;;;;;5050986;28;20419;-59
2023/09/27 03:26:53;;;;;;;24.80;21.90;;;;;;;;;;5033606;28;20045;-58
2023/09/27 03:29:19;;;;;;;28.10;23.48;;;;;;;;;;5030645;28;20048;-59
2023/09/27 03:31:45;;;;;;;25.77;22.27;;;;;;;;;;5030993;28;20084;-59
2023/09/27 03:34:11;;;;;;;29.63;21.60;;;;;;;;;;5030680;28;20042;-58
2023/09/27 03:36:38;;;;;;;25.20;21.15;;;;;;;;;;5030583;28;20038;-58
2023/09/27 03:39:04;;;;;;;24.63;20.83;;;;;;;;;;5031069;28;20045;-59
2023/09/27 03:41:30;;;;;;;27.05;20.13;;;;;;;;;;5030889;28;20406;-58
2023/09/27 03:43:56;;;;;;;25.35;20.33;;;;;;;;;;5030557;28;20047;-59
2023/09/27 03:46:22;;;;;;;27.35;20.60;;;;;;;;;;5030687;28;20048;-59
2023/09/27 03:48:48;;;;;;;25.80;21.73;;;;;;;;;;5030732;28;20041;-59
2023/09/27 03:51:22;;;;;;;25.65;22.95;;;;;;;;;;5030132;28;20049;-59
2023/09/27 03:53:48;;;;;;;24.27;21.00;;;;;;;;;;5030922;28;20587;-58
2023/09/27 03:56:14;;;;;;;26.92;22.30;;;;;;;;;;5030687;28;20059;-59
2023/09/27 03:58:40;;;;;;;27.63;22.63;;;;;;;;;;5030125;28;20038;-58
2023/09/27 04:01:06;;;;;;;28.85;23.38;;;;;;;;;;5030724;28;20053;-59
2023/09/27 04:03:32;;;;;;;30.80;24.27;;;;;;;;;;5030597;28;20326;-59
2023/09/27 04:05:58;;;;;;;30.40;25.00;;;;;;;;;;5030026;28;20095;-59
2023/09/27 04:08:24;;;;;;;30.27;25.17;;;;;;;;;;5030486;28;20041;-58
2023/09/27 04:10:50;;;;;;;31.30;25.83;;;;;;;;;;5030288;28;20292;-58
2023/09/27 04:13:16;;;;;;;33.17;25.90;;;;;;;;;;5029847;28;20049;-58
2023/09/27 04:15:42;;;;;;;31.80;25.38;;;;;;;;;;5029973;28;20480;-58
2023/09/27 04:18:08;;;;;;;31.02;25.50;;;;;;;;;;5047169;28;20044;-59
2023/09/27 04:20:34;;;;;;;29.08;25.98;;;;;;;;;;5049795;28;20045;-58
2023/09/27 04:23:02;;;;;;;29.20;25.58;;;;;;;;;;5049950;28;20041;-59
2023/09/27 04:25:28;;;;;;;30.55;24.65;;;;;;;;;;5044277;28;20493;-58
2023/09/27 04:27:54;;;;;;;30.40;25.17;;;;;;;;;;5029403;28;20153;-59
2023/09/27 04:30:22;;;;;;;28.25;24.30;;;;;;;;;;5029958;28;20539;-59
2023/09/27 04:32:51;;;;;;;28.25;23.95;;;;;;;;;;5030050;28;20084;-59
2023/09/27 04:35:17;;;;;;;28.40;24.05;;;;;;;;;;5029418;28;20048;-59
2023/09/27 04:37:44;;;;;;;30.73;24.48;;;;;;;;;;5029888;28;20053;-58
2023/09/27 04:40:14;;;;;;;31.63;25.50;;;;;;;;;;5029629;28;20075;-59
2023/09/27 04:42:44;;;;;;;29.95;24.65;;;;;;;;;;5029413;28;20476;-59
2023/09/27 04:45:11;;;;;;;28.15;24.52;;;;;;;;;;5029675;28;20041;-59
2023/09/27 04:47:37;;;;;;;30.15;23.77;;;;;;;;;;5029914;28;20546;-58
2023/09/27 04:50:03;;;;;;;28.80;24.25;;;;;;;;;;5029224;28;20429;-59
2023/09/27 04:52:29;;;;;;;28.95;23.35;;;;;;;;;;5029743;28;20057;-58
2023/09/27 04:54:59;;;;;;;32.50;25.08;;;;;;;;;;5029760;28;20437;-59
2023/09/27 04:57:25;;;;;;;27.98;22.70;;;;;;;;;;5028885;28;20091;-59
2023/09/27 04:59:52;;;;;;;28.95;24.48;;;;;;;;;;5029685;28;20551;-59
2023/09/27 05:02:18;;;;;;;29.45;23.95;;;;;;;;;;5029732;28;20450;-59
2023/09/27 05:04:45;;;;;;;30.88;26.15;;;;;;;;;;5029563;28;20060;-59
2023/09/27 05:07:11;;;;;;;32.30;25.25;;;;;;;;;;5029149;28;20065;-59
2023/09/27 05:09:37;;;;;;;31.38;25.27;;;;;;;;;;5029005;28;20075;-59
2023/09/27 05:12:03;;;;;;;30.42;25.88;;;;;;;;;;5029479;28;20050;-58
2023/09/27 05:14:29;;;;;;;30.95;24.98;;;;;;;;;;5028832;28;20053;-59
2023/09/27 05:16:55;;;;;;;32.45;25.67;;;;;;;;;;5037141;28;20037;-59
2023/09/27 05:19:21;;;;;;;35.08;25.73;;;;;;;;;;5049462;28;20087;-58
2023/09/27 05:21:47;;;;;;;29.63;23.83;;;;;;;;;;5048971;28;20037;-59
2023/09/27 05:24:13;;;;;;;30.52;24.85;;;;;;;;;;5049189;28;20052;-58
2023/09/27 05:26:39;;;;;;;29.02;24.30;;;;;;;;;;5033408;28;20037;-59
2023/09/27 05:29:05;;;;;;;30.50;24.48;;;;;;;;;;5031138;28;20042;-58
2023/09/27 05:31:31;;;;;;;27.02;23.80;;;;;;;;;;5033396;28;20123;-59
2023/09/27 05:33:57;;;;;;;33.67;26.67;;;;;;;;;;5033007;28;20038;-59
2023/09/27 05:36:23;;;;;;;31.63;25.77;;;;;;;;;;5032513;28;20135;-59
2023/09/27 05:38:50;;;;;;;34.42;27.00;;;;;;;;;;5033104;28;20347;-59
2023/09/27 05:41:16;;;;;;;32.92;26.92;;;;;;;;;;5032942;28;20073;-59
2023/09/27 05:43:42;;;;;;;32.90;27.60;;;;;;;;;;5032625;28;20325;-59
2023/09/27 05:46:08;;;;;;;32.85;27.38;;;;;;;;;;5032742;28;20037;-59
2023/09/27 05:48:34;;;;;;;34.53;27.50;;;;;;;;;;5032868;28;20049;-59
2023/09/27 05:51:00;;;;;;;36.25;28.88;;;;;;;;;;5032184;28;20065;-59
2023/09/27 05:53:26;;;;;;;34.25;27.52;;;;;;;;;;5032932;28;20053;-59
2023/09/27 05:55:53;;;;;;;35.55;28.83;;;;;;;;;;5032414;28;20419;-59
2023/09/27 05:58:19;;;;;;;34.00;26.58;;;;;;;;;;5032229;28;20463;-59
2023/09/27 06:00:47;;;;;;;34.28;28.48;;;;;;;;;;5032666;28;20041;-58
2023/09/27 06:03:13;;;;;;;39.47;31.13;;;;;;;;;;5032645;28;20049;-59
2023/09/27 06:05:41;;;;;;;36.30;29.40;;;;;;;;;;5032189;28;20436;-59
2023/09/27 06:08:07;;;;;;;37.10;30.45;;;;;;;;;;5032546;28;20046;-59
2023/09/27 06:10:33;;;;;;;39.92;29.73;;;;;;;;;;5032380;28;20049;-59
2023/09/27 06:12:59;;;;;;;37.05;29.95;;;;;;;;;;5031957;28;20461;-59
2023/09/27 06:15:26;;;;;;;34.75;30.08;;;;;;;;;;5032128;28;20522;-59
2023/09/27 06:17:52;;;;;;;35.00;29.35;;;;;;;;;;5047684;28;20041;-59
2023/09/27 06:20:22;;;;;;;38.78;30.63;;;;;;;;;;5051786;28;20033;-59
2023/09/27 06:22:49;;;;;;;39.83;31.02;;;;;;;;;;5051944;28;20041;-59
2023/09/27 06:25:16;;;;;;;37.03;29.83;;;;;;;;;;5048263;28;20088;-58
2023/09/27 06:27:42;;;;;;;38.33;29.90;;;;;;;;;;5031755;28;20041;-55
2023/09/27 06:30:08;;;;;;;40.75;31.25;;;;;;;;;;5042865;28;20068;-61
2023/09/27 06:32:35;;;;;;;39.65;32.95;;;;;;;;;;5053241;28;20041;-60
2023/09/27 06:35:12;;;;;;;51.38;34.85;;;;;;;;;;5052399;28;20045;-61
2023/09/27 06:37:39;;;;;;;42.25;32.53;;;;;;;;;;5053222;28;20045;-61
2023/09/27 06:40:08;;;;;;;41.05;32.28;;;;;;;;;;5052027;28;20059;-61
2023/09/27 06:42:34;;;;;;;39.58;32.20;;;;;;;;;;5052661;28;20118;-60
2023/09/27 06:45:01;;;;;;;42.95;33.05;;;;;;;;;;5052886;28;20111;-59
2023/09/27 06:47:27;;;;;;;43.83;33.97;;;;;;;;;;5053054;28;20084;-61
2023/09/27 06:49:54;;;;;;;40.35;32.35;;;;;;;;;;5052713;28;20041;-61
2023/09/27 06:52:20;;;;;;;40.80;33.33;;;;;;;;;;5052859;28;20056;-61
2023/09/27 06:54:46;;;;;;;44.92;35.13;;;;;;;;;;5052713;28;20083;-61
2023/09/27 06:57:13;;;;;;;41.97;34.47;;;;;;;;;;5052323;28;20037;-61
2023/09/27 06:59:39;;;;;;;45.28;36.10;;;;;;;;;;5061535;28;20079;-61
2023/09/27 07:02:06;;;;;;;51.08;39.72;;;;;;;;;;5046998;28;20041;-61
2023/09/27 07:04:32;;;;;;;49.95;38.38;;;;;;;;;;5071681;28;20413;-61
2023/09/27 07:06:58;;;;;;;51.55;38.35;;;;;;;;;;5072170;28;20106;-61
2023/09/27 07:09:24;;;;;;;50.50;38.67;;;;;;;;;;5072375;28;20040;-60
2023/09/27 07:11:50;;;;;;;47.15;38.00;;;;;;;;;;5071526;28;20071;-61
2023/09/27 07:14:19;;;;;;;49.53;37.20;;;;;;;;;;5071343;28;20055;-61
2023/09/27 07:16:46;;;;;;;47.35;38.55;;;;;;;;;;5065710;28;20043;-61
2023/09/27 07:19:13;;;;;;;48.20;39.42;;;;;;;;;;5061722;28;20063;-61
2023/09/27 07:21:39;;;;;;;51.97;41.80;;;;;;;;;;5054268;28;20044;-61
2023/09/27 07:24:05;;;;;;;56.97;42.60;;;;;;;;;;5071655;28;20090;-60
2023/09/27 07:26:31;;;;;;;56.42;44.53;;;;;;;;;;5061454;28;20042;-60
2023/09/27 07:28:57;;;;;;;48.38;38.65;;;;;;;;;;5072044;28;20560;-60
2023/09/27 07:31:26;;;;;;;55.13;42.08;;;;;;;;;;5071779;28;20040;-60
2023/09/27 07:33:55;;;;;;;58.15;44.85;;;;;;;;;;5071079;28;20055;-61
2023/09/27 07:36:24;;;;;;;56.63;45.25;;;;;;;;;;5071189;28;20498;-61
2023/09/27 07:38:50;;;;;;;57.00;46.10;;;;;;;;;;5071415;28;20084;-61
2023/09/27 07:41:16;;;;;;;56.35;44.35;;;;;;;;;;5071343;28;20082;-61
2023/09/27 07:43:42;;;;;;;51.90;39.70;;;;;;;;;;5072021;28;20382;-61
2023/09/27 07:46:09;;;;;;;48.45;37.25;;;;;;;;;;5071125;28;20041;-61
2023/09/27 07:48:39;;;;;;;54.08;41.53;;;;;;;;;;5071179;28;20048;-61
2023/09/27 07:51:12;;;;;;;54.47;41.50;;;;;;;;;;5071114;28;20068;-61
2023/09/27 07:53:38;;;;;;;55.45;42.22;;;;;;;;;;5071291;28;20044;-61
2023/09/27 07:56:06;;;;;;;54.67;41.40;;;;;;;;;;5070810;28;20040;-61
2023/09/27 07:58:33;;;;;;;57.08;42.78;;;;;;;;;;5071124;28;20045;-61
2023/09/27 08:00:59;;;;;;;51.35;39.63;;;;;;;;;;5071261;28;20048;-61
2023/09/27 08:03:27;;;;;;;50.65;40.08;;;;;;;;;;5052876;28;20120;-61
2023/09/27 08:05:53;;;;;;;54.47;40.05;;;;;;;;;;5052533;28;20475;-60
2023/09/27 08:08:19;;;;;;;55.33;43.60;;;;;;;;;;5071025;28;20078;-61
2023/09/27 08:10:45;;;;;;;55.78;42.53;;;;;;;;;;5070556;28;20098;-60
2023/09/27 08:13:15;;;;;;;50.13;39.42;;;;;;;;;;5070613;28;20040;-61
2023/09/27 08:15:42;;;;;;;47.78;38.15;;;;;;;;;;5070650;28;20047;-61
2023/09/27 08:18:08;;;;;;;53.63;39.10;;;;;;;;;;5066153;28;20093;-61
2023/09/27 08:20:37;;;;;;;52.70;39.80;;;;;;;;;;5070705;28;20067;-61
2023/09/27 08:23:03;;;;;;;52.25;41.22;;;;;;;;;;5070631;28;20102;-60
2023/09/27 08:25:29;;;;;;;54.08;39.28;;;;;;;;;;5064095;28;20075;-62
2023/09/27 08:27:56;;;;;;;52.53;40.50;;;;;;;;;;5050845;28;20480;-61
2023/09/27 08:30:22;;;;;;;50.03;39.20;;;;;;;;;;5050421;28;20596;-61
2023/09/27 08:32:48;;;;;;;51.72;41.17;;;;;;;;;;5052628;28;20045;-61
2023/09/27 08:35:14;;;;;;;52.40;41.00;;;;;;;;;;5070100;28;20562;-61
2023/09/27 08:37:40;;;;;;;51.72;39.70;;;;;;;;;;5070518;28;20123;-62
2023/09/27 08:40:13;;;;;;;54.10;40.95;;;;;;;;;;5069882;28;20045;-61
2023/09/27 08:42:39;;;;;;;54.00;40.80;;;;;;;;;;5052626;28;20071;-61
2023/09/27 08:45:10;;;;;;;53.35;40.25;;;;;;;;;;5070085;28;20044;-61
2023/09/27 08:47:36;;;;;;;55.10;39.97;;;;;;;;;;5070166;28;20036;-61
2023/09/27 08:50:04;;;;;;;55.85;41.67;;;;;;;;;;5070170;28;20048;-62
2023/09/27 08:52:31;;;;;;;53.90;41.70;;;;;;;;;;5070454;28;20080;-62
2023/09/27 08:54:57;;;;;;;50.42;39.83;;;;;;;;;;5070351;28;20487;-62
2023/09/27 08:57:28;;;;;;;52.13;41.30;;;;;;;;;;5069631;28;20451;-61
2023/09/27 08:59:55;;;;;;;49.72;36.85;;;;;;;;;;5070579;28;20128;-62
2023/09/27 09:02:23;;;;;;;48.90;36.83;;;;;;;;;;5069915;28;20040;-61
2023/09/27 09:04:49;;;;;;;48.28;35.60;;;;;;;;;;5076417;28;20051;-61
2023/09/27 09:07:15;;;;;;;51.33;35.72;;;;;;;;;;5077198;28;20459;-61
2023/09/27 09:09:42;;;;;;;45.42;32.90;;;;;;;;;;5076560;28;20036;-60
2023/09/27 09:12:12;;;;;;;45.40;34.33;;;;;;;;;;5076779;28;20067;-60
2023/09/27 09:14:38;;;;;;;42.55;32.35;;;;;;;;;;5076735;28;20065;-60
2023/09/27 09:17:04;;;;;;;49.08;31.67;;;;;;;;;;5067264;28;20437;-60
2023/09/27 09:19:31;;;;;;;46.50;33.63;;;;;;;;;;5056649;28;20036;-60
2023/09/27 09:22:11;;;;;;;39.83;30.98;;;;;;;;;;5056483;28;20052;-60
2023/09/27 09:24:40;;;;;;;40.17;30.48;;;;;;;;;;5056331;28;20045;-60
2023/09/27 09:27:07;;;;;;;39.63;30.27;;;;;;;;;;5056281;28;20049;-60
2023/09/27 09:29:53;;;;;;;39.22;30.38;;;;;;;;;;5056567;28;20132;-58
2023/09/27 09:32:25;;;;;;;37.05;28.70;;;;;;;;;;5056587;28;20045;-59
2023/09/27 09:34:52;;;;;;;40.63;29.42;;;;;;;;;;5073966;28;20532;-59
2023/09/27 09:37:27;;;;;;;34.22;26.58;;;;;;;;;;5076392;28;20076;-59
2023/09/27 09:39:54;;;;;;;36.45;26.05;;;;;;;;;;5076420;28;20041;-59
2023/09/27 09:42:31;;;;;;;40.55;28.13;;;;;;;;;;5076908;28;20094;-59
2023/09/27 09:45:00;;;;;;;31.77;25.65;;;;;;;;;;5076631;28;20062;-59
2023/09/27 09:47:26;;;;;;;30.08;25.45;;;;;;;;;;5076022;28;20047;-59
2023/09/27 09:49:53;;;;;;;34.08;26.40;;;;;;;;;;5076459;28;20111;-59
2023/09/27 09:52:24;;;;;;;34.00;25.73;;;;;;;;;;5076937;28;20520;-59
2023/09/27 09:54:51;;;;;;;33.72;24.05;;;;;;;;;;5075832;28;20048;-59
2023/09/27 09:57:19;;;;;;;34.83;24.70;;;;;;;;;;5075656;28;20490;-59
2023/09/27 10:00:25;;;;;;;38.03;25.48;;;;;;;;;;5076535;28;20093;-60
2023/09/27 10:03:00;;;;;;;32.67;24.25;;;;;;;;;;5076277;28;20051;-59
2023/09/27 10:05:26;;;;;;;32.85;24.77;;;;;;;;;;5058500;28;20483;-59
2023/09/27 10:07:52;;;;;;;32.63;24.83;;;;;;;;;;5076508;28;20041;-58
2023/09/27 10:10:19;;;;;;;33.28;23.00;;;;;;;;;;5075988;28;20048;-59
2023/09/27 10:12:46;;;;;;;31.65;24.70;;;;;;;;;;5076404;28;20048;-59
2023/09/27 10:15:13;;;;;;;32.72;22.95;;;;;;;;;;5073211;28;20040;-59
2023/09/27 10:17:40;;;;;;;30.85;23.13;;;;;;;;;;5058479;28;20052;-59
2023/09/27 10:20:24;;;;;;;28.80;21.98;;;;;;;;;;5053455;28;20091;-59
2023/09/27 10:22:54;;;;;;;29.73;22.88;;;;;;;;;;5069243;28;20139;-59
2023/09/27 10:25:26;;;;;;;26.65;19.75;;;;;;;;;;5068040;28;20083;-59
2023/09/27 10:28:02;;;;;;;28.65;19.35;;;;;;;;;;5052916;28;20049;-59
2023/09/27 10:30:48;;;;;;;29.58;19.33;;;;;;;;;;5065735;28;20040;-59
2023/09/27 10:33:17;;;;;;;25.50;19.67;;;;;;;;;;5058450;28;20056;-59
2023/09/27 10:35:44;;;;;;;27.25;22.10;;;;;;;;;;5072935;28;20044;-59
2023/09/27 10:38:10;;;;;;;27.30;20.95;;;;;;;;;;5063702;28;20051;-59
2023/09/27 10:40:43;;;;;;;27.95;19.45;;;;;;;;;;5073014;28;20372;-59
2023/09/27 10:43:10;;;;;;;27.25;20.08;;;;;;;;;;5054529;28;20075;-59
2023/09/27 10:45:35;;;;;;;24.58;19.15;;;;;;;;;;5072297;28;20032;-59
2023/09/27 10:48:15;;;;;;;27.00;19.35;;;;;;;;;;5072642;28;20126;-59
2023/09/27 10:50:51;;;;;;;26.95;20.08;;;;;;;;;;5072210;28;20056;-59
2023/09/27 10:53:17;;;;;;;28.65;21.70;;;;;;;;;;5071960;28;20051;-59
2023/09/27 10:55:43;;;;;;;28.02;23.20;;;;;;;;;;5069006;28;20067;-61
2023/09/27 10:58:15;;;;;;;28.48;22.52;;;;;;;;;;5060504;28;20071;-62
2023/09/27 11:00:51;;;;;;;32.40;24.30;;;;;;;;;;5042926;28;20042;-62
2023/09/27 11:03:17;;;;;;;29.50;21.20;;;;;;;;;;5047012;28;20385;-62
2023/09/27 11:05:43;;;;;;;26.10;20.45;;;;;;;;;;5058081;28;20032;-62
2023/09/27 11:08:09;;;;;;;27.38;21.10;;;;;;;;;;5072141;28;20086;-62
2023/09/27 11:10:35;;;;;;;24.92;19.20;;;;;;;;;;5072280;28;20047;-62
2023/09/27 11:13:11;;;;;;;24.33;17.92;;;;;;;;;;5072678;28;20115;-62
2023/09/27 11:15:38;;;;;;;22.45;16.70;;;;;;;;;;5071459;28;20037;-62
2023/09/27 11:18:05;;;;;;;21.27;15.95;;;;;;;;;;5062822;28;20131;-62
2023/09/27 11:20:31;;;;;;;22.15;16.17;;;;;;;;;;5072802;28;20033;-62
2023/09/27 11:22:58;;;;;;;20.20;15.38;;;;;;;;;;5071493;28;20036;-61
2023/09/27 11:25:31;;;;;;;19.40;15.35;;;;;;;;;;5069511;28;20127;-62
2023/09/27 11:27:57;;;;;;;19.73;15.35;;;;;;;;;;5072102;28;20044;-62
2023/09/27 11:30:24;;;;;;;22.70;17.33;;;;;;;;;;5071576;28;20044;-62
2023/09/27 11:32:51;;;;;;;24.25;18.27;;;;;;;;;;5072192;28;20491;-62
2023/09/27 11:35:20;;;;;;;25.00;17.55;;;;;;;;;;5065862;28;20044;-62
2023/09/27 11:37:48;;;;;;;21.85;18.27;;;;;;;;;;5058021;28;20068;-62
2023/09/27 11:40:14;;;;;;;22.30;17.95;;;;;;;;;;5071197;28;20044;-62
2023/09/27 11:42:42;;;;;;;22.20;16.58;;;;;;;;;;5071355;28;20047;-62
2023/09/27 11:45:12;;;;;;;21.88;16.38;;;;;;;;;;5071097;28;20487;-62
2023/09/27 11:47:46;;;;;;;23.23;17.25;;;;;;;;;;5071700;28;20163;-62
2023/09/27 11:50:13;;;;;;;24.98;17.80;;;;;;;;;;5070699;28;20083;-62
2023/09/27 11:52:39;;;;;;;20.65;16.27;;;;;;;;;;5071491;28;20079;-62
2023/09/27 11:55:06;;;;;;;22.33;16.15;;;;;;;;;;5053567;28;20052;-62
2023/09/27 11:57:32;;;;;;;19.23;16.15;;;;;;;;;;5071582;28;20383;-62
2023/09/27 11:59:58;;;;;;;21.38;16.80;;;;;;;;;;5070099;28;20079;-62
2023/09/27 12:02:24;;;;;;;23.65;16.55;;;;;;;;;;5071080;28;20040;-62
2023/09/27 12:04:50;;;;;;;26.15;19.95;;;;;;;;;;5071372;28;20043;-62
2023/09/27 12:07:16;;;;;;;26.08;20.70;;;;;;;;;;5070758;28;20051;-62
2023/09/27 12:09:42;;;;;;;24.50;18.98;;;;;;;;;;5071118;28;20044;-62
2023/09/27 12:12:09;;;;;;;28.20;19.13;;;;;;;;;;5071243;28;20070;-62
2023/09/27 12:14:35;;;;;;;24.45;19.70;;;;;;;;;;5070612;28;20132;-62
2023/09/27 12:17:01;;;;;;;24.13;18.45;;;;;;;;;;5062669;28;20040;-62
2023/09/27 12:19:27;;;;;;;27.38;18.48;;;;;;;;;;5068807;28;20044;-62
2023/09/27 12:21:53;;;;;;;22.20;16.70;;;;;;;;;;5070137;28;20620;-62
2023/09/27 12:24:19;;;;;;;26.15;18.13;;;;;;;;;;5070789;28;20051;-62
2023/09/27 12:26:45;;;;;;;24.98;18.98;;;;;;;;;;5066561;28;20072;-62
2023/09/27 12:29:11;;;;;;;21.85;17.45;;;;;;;;;;5069982;28;20044;-62
2023/09/27 12:31:37;;;;;;;23.00;18.17;;;;;;;;;;5070463;28;20047;-62
2023/09/27 12:34:03;;;;;;;39.78;20.08;;;;;;;;;;5052795;28;20083;-62
2023/09/27 12:36:29;;;;;;;24.27;18.15;;;;;;;;;;5052929;28;20044;-62
2023/09/27 12:38:55;;;;;;;21.15;16.83;;;;;;;;;;5070359;28;20208;-62
2023/09/27 12:41:24;;;;;;;22.70;17.25;;;;;;;;;;5067081;28;20040;-62
2023/09/27 12:43:50;;;;;;;20.38;15.48;;;;;;;;;;5030149;28;20075;-62
2023/09/27 12:46:17;;;;;;;26.35;18.05;;;;;;;;;;5028041;28;20123;-62
2023/09/27 12:48:43;;;;;;;17.95;15.57;;;;;;;;;;5071172;28;20048;-62
2023/09/27 12:51:09;;;;;;;18.50;15.65;;;;;;;;;;5069687;28;20056;-62
2023/09/27 12:53:35;;;;;;;18.92;14.80;;;;;;;;;;5070721;28;20060;-62
2023/09/27 12:56:04;;;;;;;18.02;14.10;;;;;;;;;;5070677;28;20453;-62
2023/09/27 12:58:30;;;;;;;18.77;14.35;;;;;;;;;;5070148;28;20055;-62
2023/09/27 13:00:56;;;;;;;22.35;14.65;;;;;;;;;;5070348;28;20076;-62
2023/09/27 13:03:22;;;;;;;16.33;12.77;;;;;;;;;;5070655;28;20070;-62
2023/09/27 13:05:48;;;;;;;19.15;14.68;;;;;;;;;;5069652;28;20036;-62
2023/09/27 13:08:14;;;;;;;29.30;14.05;;;;;;;;;;5070915;28;20045;-62
2023/09/27 13:10:40;;;;;;;18.55;13.85;;;;;;;;;;5062192;28;20368;-62
2023/09/27 13:13:07;;;;;;;17.83;13.25;;;;;;;;;;5049946;28;20442;-62
2023/09/27 13:15:33;;;;;;;15.85;13.20;;;;;;;;;;5067451;28;20041;-62
2023/09/27 13:17:59;;;;;;;17.70;12.40;;;;;;;;;;5057522;28;20045;-62
2023/09/27 13:20:25;;;;;;;13.60;10.90;;;;;;;;;;5070693;28;20608;-62
2023/09/27 13:22:51;;;;;;;14.43;10.50;;;;;;;;;;5069867;28;20119;-62
2023/09/27 13:25:17;;;;;;;14.85;9.93;;;;;;;;;;5066547;28;20033;-62
2023/09/27 13:27:44;;;;;;;11.23;9.55;;;;;;;;;;5067673;28;20037;-62
2023/09/27 13:30:10;;;;;;;10.77;9.25;;;;;;;;;;5069573;28;20490;-62
2023/09/27 13:32:36;;;;;;;10.23;8.35;;;;;;;;;;5070677;28;20041;-62
2023/09/27 13:35:02;;;;;;;13.35;8.90;;;;;;;;;;5070092;28;20093;-62
2023/09/27 13:37:28;;;;;;;11.48;7.40;;;;;;;;;;5044487;28;20123;-62
2023/09/27 13:39:56;;;;;;;9.93;6.95;;;;;;;;;;5068916;28;20040;-62
2023/09/27 13:42:22;;;;;;;10.20;7.45;;;;;;;;;;5069691;28;20036;-62
2023/09/27 13:44:48;;;;;;;13.52;8.38;;;;;;;;;;5069651;28;20436;-62
2023/09/27 13:47:14;;;;;;;8.18;6.45;;;;;;;;;;5069640;28;20097;-62
2023/09/27 13:49:40;;;;;;;14.52;6.70;;;;;;;;;;5071455;28;20134;-62
2023/09/27 13:52:06;;;;;;;12.27;6.68;;;;;;;;;;5072856;28;20052;-62
2023/09/27 13:54:32;;;;;;;11.30;6.70;;;;;;;;;;5073463;28;20177;-62
2023/09/27 13:56:59;;;;;;;10.63;8.05;;;;;;;;;;5073311;28;20062;-62
2023/09/27 13:59:25;;;;;;;8.05;6.35;;;;;;;;;;5072784;28;20043;-62
2023/09/27 14:01:51;;;;;;;9.23;6.82;;;;;;;;;;5072930;28;20471;-62
2023/09/27 14:04:17;;;;;;;10.77;6.85;;;;;;;;;;5073570;28;20036;-62
2023/09/27 14:06:43;;;;;;;11.45;6.60;;;;;;;;;;5072919;28;20045;-62
2023/09/27 14:09:09;;;;;;;9.10;6.65;;;;;;;;;;5055465;28;20049;-62
2023/09/27 14:11:35;;;;;;;8.48;6.13;;;;;;;;;;5073392;28;20064;-62
2023/09/27 14:14:02;;;;;;;7.78;5.30;;;;;;;;;;5072996;28;20808;-62
2023/09/27 14:16:29;;;;;;;8.98;5.10;;;;;;;;;;5069374;28;20045;-62
2023/09/27 14:18:55;;;;;;;9.23;5.45;;;;;;;;;;5063184;28;20428;-62